7TS3 weather

Sunny V Ranch Airport
Sisterdale, Texas, United States

Public forecast

Using degrees Fahrenheit for public forecast. Weather courtesy of forecast.io.

METAR (pilot weather report)

Closest report is Boerne Stage Field, 12.5 nm (23.2 km) S. Retrieved 2019/07/18 00:35 UTC (0 seconds ago):

K5C1 180035Z AUTO 14010G14KT 10SM CLR 31/20 A2999 RMK AO1

TAF (pilot weather forecast)

Forecast is more than 12 hours old.

Closest forecast is San Antonio International Airport, 26.3 nm (48.6 km) SSE. Retrieved 2019/07/17 00:22 UTC (1 day ago):

TAF KSAT 172320Z 1800/1906 15014KT P6SM SCT040 FM180900 17009KT P6SM BKN012 FM181500 17014KT P6SM SCT050